Ysleta Del Sur Pueblo, TX

8:00 PM MDT on August 29, 2015 (GMT -0600)
Shock | | Change Station
CLOSE
Current Station
Personal Weather Station
Location: El Paso, TX
Elevation: 3924 ft
Nearby Weather Stations

Elev 3924 ft 31.76 °N, 106.33 °W | Updated 3 minutes ago

Partly Cloudy
Partly Cloudy
86.4 °F
Feels Like 85 °F
N
7.8
Wind Variable Wind from SSE

Today
High -- | Low -- °F
--% Chance of Precip.
Yesterday
High -- | Low -- °F
Precip. -- in
6:38 AM 7:33 PM
Full, 100% visible
Pressure 29.84 in
Visibility 10.0 miles
Clouds Scattered Clouds 8000 ft
Scattered Clouds 25000 ft
Heat Index 85 °F
Dew Point 56 °F
Humidity 36%
Rainfall 0.12 in
Snow Depth Not available.
UV 0 out of 12
Pollen 7.50 out of 12
Air Quality Not available.
Flu Activity Not available.
METAR KELP 300151Z 13012KT 10SM SCT080 SCT250 31/12 A3006 RMK AO2 SLP103 CB DSNT E SHRA DSNT E T03060122
Pressure 29.84 in
Visibility 10.0 miles
Clouds Scattered Clouds 8000 ft
Scattered Clouds 25000 ft
Heat Index 85 °F
Dew Point 56 °F
Humidity 36%
Rainfall 0.12 in
Snow Depth Not available.
UV 0 out of 12
Pollen 7.50 out of 12
Air Quality Not available.
Flu Activity Not available.
METAR KELP 300151Z 13012KT 10SM SCT080 SCT250 31/12 A3006 RMK AO2 SLP103 CB DSNT E SHRA DSNT E T03060122

10-Day Weather Forecast

×

Almanac

Astronomy

Aug. 29, 2015 Rise Set
Actual Time
Civil Twilight
Nautical Twilight
Astronomical Twilight
Moon
Length of Visible Light
Length of Day
Tomorrow will be .
, % of the Moon is Illuminated

Today's Extremes

State Highs State Lows

Community

WunderPhotos

Upload Photos

1,850,847 photos uploaded!

WunderBlogs® & News

Nearby

Air Quality

  Air Quality AQ Index Pollutant
Not available.

Snow Depth

Station Depth Elevation

Earthquake Activity

City Distance Mag. Time & Date
Minimum magnitude displayed is 2.5.

Coastal Water Temperatures

Place Temperature

Stations

Nearby Weather Stations

Station Location Temp. Windchill Dew Point Humidity Wind Precip. Elev Updated Type